Time;durP1;ratioP1;P1;durP2;ratioP2;P2;SDS_P1;SDS_P2;PMS_P1;PMS_P2;Temp;Humidity;BMP_temperature;BMP_pressure;BME280_temperature;BME280_humidity;BME280_pressure;Samples;Min_cycle;Max_cycle;Signal;HPM_P1;HPM_P2
2022/08/17 00:01:21;;;;;;;9.10;5.10;;;17.70;99.90;;;;;;5057615;28;20263;-81
2022/08/17 00:03:49;;;;;;;5.60;5.00;;;17.70;99.90;;;;;;5057814;28;20185;-81
2022/08/17 00:06:22;;;;;;;5.83;5.10;;;17.70;99.90;;;;;;5056783;28;20181;-81
2022/08/17 00:08:49;;;;;;;6.37;4.97;;;17.70;99.90;;;;;;5057957;28;20293;-80
2022/08/17 00:11:38;;;;;;;8.17;5.13;;;17.60;99.90;;;;;;5057739;28;20210;-80
2022/08/17 00:14:10;;;;;;;5.30;4.60;;;17.60;99.90;;;;;;5054470;28;20173;-82
2022/08/17 00:16:41;;;;;;;6.50;4.83;;;17.60;99.90;;;;;;5039988;28;20254;-82
2022/08/17 00:19:09;;;;;;;5.53;4.93;;;17.50;99.90;;;;;;5040921;28;20658;-81
2022/08/17 00:21:37;;;;;;;5.70;5.07;;;17.50;99.90;;;;;;5038436;28;20196;-81
2022/08/17 00:24:03;;;;;;;6.53;5.17;;;17.50;99.90;;;;;;5037907;28;20672;-81
2022/08/17 00:26:29;;;;;;;5.27;4.73;;;;;;;;;;5039446;28;20178;-82
2022/08/17 00:28:55;;;;;;;5.23;4.73;;;17.50;99.90;;;;;;5039467;28;20212;-82
2022/08/17 00:31:22;;;;;;;9.17;4.87;;;17.50;99.90;;;;;;5039913;28;20190;-82
2022/08/17 00:33:48;;;;;;;6.40;4.90;;;17.50;99.90;;;;;;5039977;28;20302;-82
2022/08/17 00:36:15;;;;;;;5.23;4.67;;;17.40;99.90;;;;;;5039857;28;20517;-81
2022/08/17 00:38:41;;;;;;;6.80;4.70;;;17.50;99.90;;;;;;5037878;28;20195;-81
2022/08/17 00:41:10;;;;;;;5.57;4.90;;;17.40;99.90;;;;;;5039218;28;20198;-82
2022/08/17 00:43:44;;;;;;;6.67;5.13;;;17.40;99.90;;;;;;5037928;28;20283;-82
2022/08/17 00:46:25;;;;;;;7.20;5.80;;;17.60;99.90;;;;;;5038567;28;20668;-82
2022/08/17 00:48:51;;;;;;;6.47;5.40;;;17.40;99.90;;;;;;5037282;28;20677;-82
2022/08/17 00:51:46;;;;;;;5.27;4.60;;;17.40;99.90;;;;;;5037835;28;20565;-82
2022/08/17 00:54:32;;;;;;;8.33;5.27;;;17.60;99.90;;;;;;5038963;28;20179;-81
2022/08/17 00:56:59;;;;;;;7.43;5.60;;;17.40;99.90;;;;;;5040084;28;20201;-82
2022/08/17 00:59:29;;;;;;;8.77;5.07;;;17.40;99.90;;;;;;5040118;28;20181;-82
2022/08/17 01:01:56;;;;;;;7.40;5.77;;;17.30;99.90;;;;;;5037932;28;20609;-82
2022/08/17 01:04:25;;;;;;;6.20;5.57;;;17.30;99.90;;;;;;5037955;28;20188;-82
2022/08/17 01:06:51;;;;;;;7.73;5.60;;;17.30;99.90;;;;;;5037738;28;20180;-82
2022/08/17 01:09:18;;;;;;;6.43;5.27;;;17.40;99.90;;;;;;5037419;28;20211;-81
2022/08/17 01:11:45;;;;;;;7.93;5.70;;;17.20;99.90;;;;;;5037190;28;20661;-81
2022/08/17 01:14:11;;;;;;;6.50;5.57;;;17.20;99.90;;;;;;5037159;28;20210;-81
2022/08/17 01:16:37;;;;;;;7.33;5.67;;;17.10;99.90;;;;;;5037558;28;20188;-81
2022/08/17 01:19:27;;;;;;;6.00;5.30;;;17.10;99.90;;;;;;5037612;28;20183;-81
2022/08/17 01:22:11;;;;;;;6.37;5.07;;;17.00;99.90;;;;;;5036058;28;20207;-81
2022/08/17 01:24:42;;;;;;;8.67;5.53;;;16.90;99.90;;;;;;5036264;28;20185;-82
2022/08/17 01:27:10;;;;;;;5.20;4.70;;;16.80;99.90;;;;;;5037045;28;20205;-81
2022/08/17 01:29:38;;;;;;;5.70;5.00;;;16.90;99.90;;;;;;5035831;28;20183;-81
2022/08/17 01:32:05;;;;;;;8.40;4.83;;;16.90;99.90;;;;;;5035268;28;20200;-81
2022/08/17 01:34:31;;;;;;;5.93;4.90;;;17.00;99.90;;;;;;5047973;28;20177;-81
2022/08/17 01:36:58;;;;;;;6.83;5.10;;;16.90;99.90;;;;;;5058699;28;20221;-81
2022/08/17 01:39:26;;;;;;;6.27;5.10;;;17.00;99.90;;;;;;5045789;28;20175;-82
2022/08/17 01:41:57;;;;;;;6.73;5.60;;;16.90;99.90;;;;;;5039705;28;20570;-81
2022/08/17 01:44:25;;;;;;;6.03;5.47;;;16.70;99.90;;;;;;5043674;28;20673;-81
2022/08/17 01:46:51;;;;;;;7.37;5.50;;;16.90;99.90;;;;;;5053045;28;20180;-81
2022/08/17 01:49:18;;;;;;;7.80;6.37;;;16.90;99.90;;;;;;5052980;28;20240;-81
2022/08/17 01:51:44;;;;;;;7.00;5.00;;;16.90;99.90;;;;;;5042350;28;20272;-82
2022/08/17 01:54:14;;;;;;;8.60;5.93;;;16.90;99.90;;;;;;5040742;28;20220;-81
2022/08/17 01:56:44;;;;;;;7.20;5.90;;;16.90;99.90;;;;;;5038474;28;20225;-81
2022/08/17 01:59:10;;;;;;;6.43;5.43;;;16.80;99.90;;;;;;5037169;28;20175;-82
2022/08/17 02:01:36;;;;;;;5.77;5.27;;;16.80;99.90;;;;;;5038538;28;20245;-82
2022/08/17 02:04:04;;;;;;;6.47;5.63;;;16.70;99.90;;;;;;5038437;28;20175;-82
2022/08/17 02:06:32;;;;;;;6.33;5.57;;;16.80;99.90;;;;;;5037727;28;20183;-81
2022/08/17 02:08:58;;;;;;;6.33;5.57;;;16.60;99.90;;;;;;5038975;28;20257;-81
2022/08/17 02:11:24;;;;;;;7.80;5.63;;;16.70;99.90;;;;;;5040736;28;20196;-81
2022/08/17 02:13:50;;;;;;;6.57;5.83;;;16.70;99.90;;;;;;5043765;28;20214;-81
2022/08/17 02:16:17;;;;;;;6.27;5.40;;;16.50;99.90;;;;;;5050502;28;20185;-81
2022/08/17 02:18:45;;;;;;;8.73;5.70;;;16.60;99.90;;;;;;5039856;28;20203;-81
2022/08/17 02:21:12;;;;;;;5.97;5.07;;;16.50;99.90;;;;;;5037623;28;20187;-81
2022/08/17 02:23:42;;;;;;;6.50;5.90;;;16.50;99.90;;;;;;5037857;28;20712;-81
2022/08/17 02:26:08;;;;;;;10.90;6.10;;;16.50;99.90;;;;;;5037224;28;20204;-81
2022/08/17 02:28:34;;;;;;;8.77;6.00;;;16.50;99.90;;;;;;5037244;28;20184;-81
2022/08/17 02:31:05;;;;;;;6.40;5.50;;;16.40;99.90;;;;;;5035999;28;20207;-81
2022/08/17 02:33:31;;;;;;;6.30;5.63;;;16.30;99.90;;;;;;5037722;28;20179;-81
2022/08/17 02:35:57;;;;;;;7.27;5.83;;;16.40;99.90;;;;;;5037700;28;20206;-82
2022/08/17 02:38:23;;;;;;;7.60;5.50;;;;;;;;;;5037832;28;20275;-81
2022/08/17 02:40:49;;;;;;;7.57;5.80;;;16.40;99.90;;;;;;5036568;28;20253;-81
2022/08/17 02:43:15;;;;;;;8.23;5.30;;;16.30;99.90;;;;;;5038207;28;20176;-81
2022/08/17 02:45:40;;;;;;;8.40;6.23;;;16.30;99.90;;;;;;5037350;28;20176;-81
2022/08/17 02:48:07;;;;;;;8.33;5.83;;;;;;;;;;5037738;28;20177;-81
2022/08/17 02:50:33;;;;;;;7.77;6.07;;;16.20;99.90;;;;;;5037613;28;20303;-82
2022/08/17 02:52:58;;;;;;;11.17;6.27;;;16.30;99.90;;;;;;5038467;28;20171;-81
2022/08/17 02:55:28;;;;;;;7.67;6.50;;;16.10;99.90;;;;;;5038072;28;20245;-81
2022/08/17 02:57:54;;;;;;;9.30;6.43;;;16.10;99.90;;;;;;5036530;28;20202;-82
2022/08/17 03:00:24;;;;;;;9.40;6.50;;;16.00;99.90;;;;;;5038065;28;20185;-81
2022/08/17 03:02:50;;;;;;;8.47;6.07;;;16.00;99.90;;;;;;5035920;28;20777;-81
2022/08/17 03:05:18;;;;;;;7.80;6.73;;;16.10;99.90;;;;;;5037603;28;20267;-81
2022/08/17 03:07:44;;;;;;;8.87;6.87;;;15.80;99.90;;;;;;5035656;28;20198;-82
2022/08/17 03:10:10;;;;;;;7.47;6.33;;;;;;;;;;5036247;28;20640;-82
2022/08/17 03:12:37;;;;;;;10.30;6.67;;;16.00;99.90;;;;;;5036265;28;20246;-82
2022/08/17 03:15:16;;;;;;;7.97;6.23;;;16.00;99.90;;;;;;5037991;28;20542;-82
2022/08/17 03:17:42;;;;;;;6.83;6.13;;;16.00;99.90;;;;;;5041263;28;20213;-81
2022/08/17 03:20:10;;;;;;;8.40;6.37;;;15.80;99.90;;;;;;5052000;28;20181;-81
2022/08/17 03:22:42;;;;;;;6.97;6.27;;;15.90;99.90;;;;;;5049999;28;20231;-81
2022/08/17 03:25:10;;;;;;;9.80;6.27;;;15.90;99.90;;;;;;5053291;28;20173;-81
2022/08/17 03:27:37;;;;;;;8.67;6.17;;;15.60;99.90;;;;;;5050608;28;20179;-81
2022/08/17 03:30:07;;;;;;;7.17;5.97;;;15.80;99.90;;;;;;5038428;28;20176;-81
2022/08/17 03:32:39;;;;;;;6.17;5.57;;;15.90;99.90;;;;;;5036675;28;20203;-81
2022/08/17 03:35:05;;;;;;;7.90;6.33;;;15.80;99.90;;;;;;5036376;28;20174;-81
2022/08/17 03:37:31;;;;;;;7.20;6.00;;;15.80;99.90;;;;;;5035414;28;20222;-80
2022/08/17 03:39:57;;;;;;;7.50;6.40;;;15.70;99.90;;;;;;5043353;28;20175;-81
2022/08/17 03:42:25;;;;;;;7.93;6.20;;;15.30;99.90;;;;;;5055909;28;20179;-81
2022/08/17 03:44:54;;;;;;;8.87;5.90;;;15.50;99.90;;;;;;5049549;28;20167;-82
2022/08/17 03:58:21;;;;;;;7.50;6.57;;;;;;;;;;5040610;28;20216;-82
2022/08/17 04:00:47;;;;;;;7.87;6.30;;;15.40;99.90;;;;;;5039359;28;20721;-82
2022/08/17 04:03:13;;;;;;;8.50;6.33;;;15.20;99.90;;;;;;5039630;28;20178;-82
2022/08/17 04:05:39;;;;;;;10.00;6.37;;;15.40;99.90;;;;;;5040989;28;20170;-82
2022/08/17 04:08:06;;;;;;;7.67;6.87;;;;;;;;;;5040768;28;20185;-82
2022/08/17 04:10:32;;;;;;;7.13;6.33;;;15.50;99.90;;;;;;5040428;28;20186;-82
2022/08/17 04:12:58;;;;;;;7.30;6.53;;;15.40;99.90;;;;;;5038667;28;20185;-82
2022/08/17 04:15:25;;;;;;;8.47;6.53;;;;;;;;;;5039140;28;20174;-82
2022/08/17 04:17:51;;;;;;;6.97;6.27;;;15.20;99.90;;;;;;5039933;28;20202;-81
2022/08/17 04:20:19;;;;;;;8.70;6.37;;;15.30;99.90;;;;;;5040088;28;20194;-81
2022/08/17 04:23:02;;;;;;;7.53;6.20;;;15.50;99.90;;;;;;5040362;28;20250;-82
2022/08/17 04:25:33;;;;;;;10.53;6.20;;;15.40;99.90;;;;;;5040002;28;20232;-81
2022/08/17 04:28:00;;;;;;;7.03;6.23;;;;;;;;;;5039443;28;20174;-81
2022/08/17 04:30:28;;;;;;;8.03;6.60;;;15.40;99.90;;;;;;5039902;28;20174;-82
2022/08/17 04:32:54;;;;;;;6.97;6.27;;;15.30;99.90;;;;;;5039947;28;20174;-81
2022/08/17 04:35:22;;;;;;;7.90;5.97;;;15.20;99.90;;;;;;5039386;28;20186;-82
2022/08/17 04:37:48;;;;;;;7.50;6.47;;;15.60;99.90;;;;;;5039662;28;20205;-82
2022/08/17 04:43:22;;;;;;;7.10;5.80;;;15.10;99.90;;;;;;5040279;28;20197;-82
2022/08/17 04:45:51;;;;;;;8.40;6.60;;;15.40;99.90;;;;;;5039692;28;20174;-82
2022/08/17 04:48:16;;;;;;;9.27;6.47;;;15.20;99.90;;;;;;5040246;28;20175;-82
2022/08/17 04:50:46;;;;;;;11.23;6.27;;;15.50;99.90;;;;;;5039609;28;20191;-82
2022/08/17 04:53:13;;;;;;;7.23;6.07;;;15.60;99.90;;;;;;5040115;28;20261;-82
2022/08/17 04:55:39;;;;;;;10.83;6.63;;;15.30;99.90;;;;;;5043922;28;20185;-81
2022/08/17 04:58:05;;;;;;;10.00;6.87;;;15.60;99.90;;;;;;5054338;28;20201;-81
2022/08/17 05:00:31;;;;;;;9.77;6.17;;;;;;;;;;5050398;28;20531;-82
2022/08/17 05:02:57;;;;;;;8.83;6.47;;;;;;;;;;5039612;28;20217;-81
2022/08/17 05:05:27;;;;;;;6.57;5.90;;;15.40;99.90;;;;;;5037262;28;20656;-80
2022/08/17 05:07:56;;;;;;;7.73;6.37;;;15.50;99.90;;;;;;5038972;28;20198;-82
2022/08/17 05:10:24;;;;;;;6.87;6.17;;;15.80;99.90;;;;;;5036901;28;20230;-80
2022/08/17 05:13:04;;;;;;;12.33;7.40;;;16.10;99.90;;;;;;5038463;28;20669;-82
2022/08/17 05:15:32;;;;;;;8.07;6.13;;;15.80;99.90;;;;;;5038894;28;20250;-80
2022/08/17 05:17:57;;;;;;;11.70;6.40;;;16.10;99.90;;;;;;5036901;28;20211;-79
2022/08/17 05:20:25;;;;;;;9.27;6.63;;;16.00;99.90;;;;;;5037457;28;20203;-80
2022/08/17 05:22:56;;;;;;;8.23;5.93;;;15.80;99.90;;;;;;5038396;28;20634;-80
2022/08/17 05:25:25;;;;;;;7.40;6.10;;;16.10;99.90;;;;;;5039469;28;20178;-80
2022/08/17 05:27:52;;;;;;;7.93;6.47;;;16.20;99.90;;;;;;5041395;28;20647;-80
2022/08/17 05:30:17;;;;;;;7.10;5.53;;;16.10;99.90;;;;;;5038488;28;20176;-81
2022/08/17 05:32:54;;;;;;;7.63;5.80;;;16.20;99.90;;;;;;5039985;28;20189;-81
2022/08/17 05:35:21;;;;;;;11.57;6.10;;;16.40;99.90;;;;;;5039713;28;20586;-81
2022/08/17 05:37:47;;;;;;;9.00;5.47;;;16.60;99.90;;;;;;5036287;28;20255;-81
2022/08/17 05:40:14;;;;;;;9.97;5.40;;;;;;;;;;5037770;28;20210;-81
2022/08/17 05:42:40;;;;;;;6.87;4.50;;;;;;;;;;5037600;28;20282;-80
2022/08/17 05:45:07;;;;;;;11.87;5.40;;;16.90;99.90;;;;;;5039618;28;20290;-80
2022/08/17 05:47:33;;;;;;;8.63;5.10;;;16.60;99.90;;;;;;5053002;28;20214;-81
2022/08/17 05:50:00;;;;;;;7.00;5.10;;;16.70;99.90;;;;;;5057880;28;20190;-81
2022/08/17 05:52:38;;;;;;;5.90;5.00;;;16.70;99.90;;;;;;5040464;28;20192;-81
2022/08/17 05:55:09;;;;;;;6.37;5.17;;;16.90;99.90;;;;;;5039121;28;20246;-81
2022/08/17 05:57:49;;;;;;;6.47;4.47;;;16.80;99.90;;;;;;5037478;28;20206;-81
2022/08/17 06:00:21;;;;;;;4.60;3.93;;;17.20;99.90;;;;;;5038935;28;20704;-81
2022/08/17 06:03:14;;;;;;;5.97;4.70;;;17.20;99.90;;;;;;5038201;28;20622;-81
2022/08/17 06:06:04;;;;;;;9.07;4.97;;;17.30;99.90;;;;;;5037783;28;20191;-82
2022/08/17 06:08:30;;;;;;;4.87;4.33;;;17.20;99.90;;;;;;5037327;28;20183;-81
2022/08/17 06:11:13;;;;;;;5.03;4.60;;;17.00;99.90;;;;;;5036848;28;20239;-82
2022/08/17 06:14:04;;;;;;;5.20;4.67;;;17.10;99.90;;;;;;5038383;28;20210;-82
2022/08/17 06:16:35;;;;;;;5.00;4.30;;;17.40;99.90;;;;;;5038336;28;20261;-82
2022/08/17 06:19:15;;;;;;;8.03;4.97;;;17.50;99.90;;;;;;5038962;28;20207;-81
2022/08/17 06:21:47;;;;;;;6.70;4.77;;;17.60;99.90;;;;;;5039261;28;20249;-82
2022/08/17 06:24:33;;;;;;;5.03;4.53;;;17.70;99.90;;;;;;5040786;28;20176;-82
2022/08/17 06:27:21;;;;;;;4.60;4.20;;;18.00;99.90;;;;;;5043627;28;20211;-81
2022/08/17 06:30:04;;;;;;;4.77;4.27;;;17.90;99.90;;;;;;5050677;28;20170;-81
2022/08/17 06:32:30;;;;;;;9.17;4.17;;;18.10;99.90;;;;;;5040821;28;20223;-82
2022/08/17 06:34:57;;;;;;;6.73;4.30;;;18.10;99.90;;;;;;5035698;28;20188;-82
2022/08/17 06:38:00;;;;;;;6.37;4.50;;;18.40;99.90;;;;;;5036722;28;20747;-81
2022/08/17 06:40:46;;;;;;;7.10;4.70;;;18.60;99.90;;;;;;5036166;28;20175;-81
2022/08/17 06:43:32;;;;;;;5.73;4.47;;;18.50;99.90;;;;;;5035723;28;20177;-81
2022/08/17 06:46:09;;;;;;;3.67;3.37;;;18.60;99.90;;;;;;5037246;28;20177;-81
2022/08/17 06:48:51;;;;;;;4.47;3.97;;;18.80;99.90;;;;;;5035182;28;20207;-81
2022/08/17 06:51:26;;;;;;;4.97;3.63;;;19.30;99.90;;;;;;5037033;28;20662;-81
2022/08/17 06:54:04;;;;;;;5.10;4.50;;;19.20;99.90;;;;;;5035890;28;20195;-82
2022/08/17 06:56:46;;;;;;;6.67;3.20;;;19.50;99.90;;;;;;5035500;28;20181;-81
2022/08/17 06:59:18;;;;;;;4.70;3.63;;;19.90;99.90;;;;;;5036560;28;20664;-80
2022/08/17 07:01:48;;;;;;;3.73;3.17;;;20.20;99.90;;;;;;5035680;28;20197;-80
2022/08/17 07:04:25;;;;;;;8.47;3.40;;;20.40;99.90;;;;;;5036742;28;20249;-81
2022/08/17 07:09:58;;;;;;;3.53;3.23;;;20.80;99.90;;;;;;5037840;28;20196;-81
2022/08/17 07:12:37;;;;;;;4.80;3.50;;;21.00;99.90;;;;;;5037475;28;20205;-81
2022/08/17 07:15:12;;;;;;;3.47;3.17;;;21.40;99.90;;;;;;5037115;28;20154;-82
2022/08/17 07:17:39;;;;;;;3.80;3.33;;;21.10;99.90;;;;;;5036175;28;20202;-81
2022/08/17 07:20:19;;;;;;;4.10;3.67;;;21.20;99.90;;;;;;5036010;28;20179;-81
2022/08/17 07:22:55;;;;;;;6.27;4.00;;;21.30;99.90;;;;;;5041280;28;20264;-81
2022/08/17 07:25:20;;;;;;;4.43;3.37;;;21.40;99.90;;;;;;5041226;28;20173;-80
2022/08/17 07:27:53;;;;;;;3.97;3.57;;;21.40;99.90;;;;;;5041384;28;20182;-80
2022/08/17 07:30:23;;;;;;;4.83;3.80;;;21.60;99.90;;;;;;5041627;28;20236;-81
2022/08/17 07:33:07;;;;;;;4.43;3.70;;;21.50;99.90;;;;;;5043135;28;20252;-80
2022/08/17 07:35:42;;;;;;;3.80;3.40;;;21.70;99.90;;;;;;5041259;28;20245;-81
2022/08/17 07:38:27;;;;;;;3.77;3.47;;;21.70;99.90;;;;;;5040972;28;20240;-80
2022/08/17 07:41:01;;;;;;;7.53;3.63;;;21.80;99.90;;;;;;5041633;28;20726;-81
2022/08/17 07:43:38;;;;;;;4.70;3.30;;;21.80;99.90;;;;;;5040574;28;20173;-80
2022/08/17 07:48:52;;;;;;;7.47;3.80;;;22.00;99.90;;;;;;5042523;28;20537;-80
2022/08/17 07:51:27;;;;;;;4.70;3.80;;;22.10;99.90;;;;;;5042554;28;20285;-80
2022/08/17 07:53:56;;;;;;;3.77;3.37;;;22.20;99.90;;;;;;5053873;28;20173;-81
2022/08/17 07:56:38;;;;;;;3.50;3.20;;;22.30;99.90;;;;;;5058085;28;20171;-81
2022/08/17 07:59:26;;;;;;;4.47;3.73;;;22.40;99.90;;;;;;5050479;28;20213;-81
2022/08/17 08:01:59;;;;;;;4.30;3.83;;;22.60;99.90;;;;;;5045748;28;20197;-81
2022/08/17 08:04:37;;;;;;;6.07;3.57;;;22.70;99.90;;;;;;5040980;28;20210;-82
2022/08/17 08:07:16;;;;;;;4.37;3.50;;;22.80;99.90;;;;;;5040747;28;20170;-81
2022/08/17 08:09:43;;;;;;;8.20;3.70;;;22.80;99.90;;;;;;5040828;28;20190;-81
2022/08/17 08:12:37;;;;;;;4.20;3.77;;;23.00;99.90;;;;;;5040061;28;20220;-81
2022/08/17 08:15:22;;;;;;;6.27;4.00;;;23.10;99.90;;;;;;5040295;28;20216;-79
2022/08/17 08:17:56;;;;;;;7.00;3.27;;;23.20;99.90;;;;;;5039579;28;20690;-79
2022/08/17 08:20:48;;;;;;;3.73;3.30;;;23.50;99.90;;;;;;5038695;28;20249;-79
2022/08/17 08:23:24;;;;;;;3.57;3.20;;;23.60;99.90;;;;;;5039885;28;20498;-80
2022/08/17 08:25:58;;;;;;;4.93;3.40;;;24.00;99.90;;;;;;5039287;28;20169;-81
2022/08/17 08:29:00;;;;;;;4.13;3.57;;;23.90;99.90;;;;;;5039439;28;20258;-80
2022/08/17 08:31:43;;;;;;;4.30;3.53;;;24.50;99.90;;;;;;5038099;28;20225;-81
2022/08/17 08:34:24;;;;;;;4.13;3.43;;;24.20;99.90;;;;;;5039567;28;20179;-81
2022/08/17 08:37:19;;;;;;;4.20;3.80;;;24.40;99.90;;;;;;5039813;28;20536;-80
2022/08/17 08:40:12;;;;;;;5.30;3.40;;;24.30;99.90;;;;;;5038619;28;20184;-81
2022/08/17 08:42:56;;;;;;;5.07;3.43;;;24.50;99.90;;;;;;5038367;28;20718;-81
2022/08/17 08:46:00;;;;;;;3.73;3.43;;;24.60;99.90;;;;;;5038761;28;20263;-82
2022/08/17 08:48:43;;;;;;;4.70;3.70;;;24.80;99.90;;;;;;5039068;28;20224;-81
2022/08/17 08:51:34;;;;;;;8.53;3.90;;;25.00;99.90;;;;;;5038522;28;20205;-81
2022/08/17 08:54:05;;;;;;;5.90;3.40;;;25.10;99.90;;;;;;5039373;28;20188;-82
2022/08/17 08:56:40;;;;;;;4.47;3.13;;;25.10;99.90;;;;;;5039078;28;20212;-82
2022/08/17 08:59:52;;;;;;;6.83;3.40;;;25.30;99.90;;;;;;5038313;28;20203;-81
2022/08/17 09:02:32;;;;;;;5.60;3.07;;;25.20;99.90;;;;;;5034952;28;20261;-82
2022/08/17 09:05:17;;;;;;;4.27;3.40;;;25.40;99.90;;;;;;5037575;28;20179;-81
2022/08/17 09:08:11;;;;;;;4.23;3.80;;;25.60;99.90;;;;;;5039312;28;20187;-81
2022/08/17 09:10:45;;;;;;;4.23;3.37;;;26.10;99.90;;;;;;5039786;28;20299;-82
2022/08/17 09:13:20;;;;;;;4.67;3.70;;;26.10;99.90;;;;;;5038975;28;20274;-82
2022/08/17 09:15:57;;;;;;;3.47;2.90;;;26.30;99.90;;;;;;5039047;28;20176;-83
2022/08/17 09:18:38;;;;;;;5.50;3.17;;;26.50;99.90;;;;;;5039574;28;20194;-82
2022/08/17 09:21:24;;;;;;;4.47;3.73;;;26.70;99.90;;;;;;5039058;28;20190;-78
2022/08/17 09:24:12;;;;;;;3.43;3.13;;;26.70;99.90;;;;;;5040537;28;20176;-82
2022/08/17 09:26:59;;;;;;;4.60;3.47;;;26.70;99.90;;;;;;5039263;28;20637;-82
2022/08/17 09:29:28;;;;;;;4.30;2.80;;;27.10;99.90;;;;;;5042003;28;20710;-81
2022/08/17 09:31:58;;;;;;;6.20;3.60;;;27.50;99.90;;;;;;5041363;28;20305;-80
2022/08/17 09:34:29;;;;;;;5.83;3.70;;;27.50;99.90;;;;;;5042845;28;20254;-79
2022/08/17 09:37:01;;;;;;;3.93;3.53;;;27.60;99.90;;;;;;5040859;28;20182;-80
2022/08/17 09:39:40;;;;;;;3.80;3.20;;;27.50;99.90;;;;;;5037959;28;20676;-80
2022/08/17 09:42:24;;;;;;;4.77;3.43;;;27.50;99.90;;;;;;5037943;28;20328;-80
2022/08/17 09:45:00;;;;;;;3.83;3.23;;;27.70;99.90;;;;;;5037472;28;20183;-80
2022/08/17 09:47:29;;;;;;;3.67;3.07;;;27.70;99.90;;;;;;5038673;28;20183;-80
2022/08/17 09:50:04;;;;;;;4.97;3.47;;;27.30;99.90;;;;;;5037034;28;20191;-80
2022/08/17 09:52:31;;;;;;;4.37;3.20;;;27.30;99.90;;;;;;5037773;28;20281;-80
2022/08/17 09:54:59;;;;;;;3.83;3.43;;;27.20;99.90;;;;;;5038326;28;20179;-80
2022/08/17 09:57:49;;;;;;;7.03;3.50;;;27.30;99.90;;;;;;5037196;28;20208;-80
2022/08/17 10:00:25;;;;;;;3.53;3.23;;;27.00;99.90;;;;;;5047226;28;20184;-80
2022/08/17 10:03:24;;;;;;;4.73;3.00;;;27.00;99.90;;;;;;5056127;28;20201;-80
2022/08/17 10:06:21;;;;;;;4.73;3.43;;;26.70;99.90;;;;;;5036271;28;20187;-80
2022/08/17 10:09:07;;;;;;;4.27;3.13;;;26.50;99.90;;;;;;5036356;28;20551;-80
2022/08/17 10:12:14;;;;;;;4.10;3.70;;;26.40;99.90;;;;;;5037955;28;20235;-80
2022/08/17 10:15:15;;;;;;;3.70;2.97;;;26.50;99.90;;;;;;5034164;28;20188;-80
2022/08/17 10:18:07;;;;;;;5.00;3.53;;;26.80;99.90;;;;;;5038034;28;20233;-80
2022/08/17 10:20:32;;;;;;;4.23;3.57;;;27.20;99.90;;;;;;5037157;28;20181;-80
2022/08/17 10:26:30;;;;;;;6.60;3.20;;;27.40;99.90;;;;;;5055679;28;20213;-81
2022/08/17 10:29:05;;;;;;;4.10;3.40;;;27.10;99.90;;;;;;5037569;28;20192;-80
2022/08/17 10:31:33;;;;;;;3.40;3.10;;;26.50;99.90;;;;;;5040461;28;20193;-80
2022/08/17 10:34:33;;;;;;;4.17;3.60;;;26.50;99.90;;;;;;5039524;28;20189;-80
2022/08/17 10:37:10;;;;;;;3.40;3.10;;;26.40;99.90;;;;;;5038887;28;20185;-81
2022/08/17 10:39:53;;;;;;;4.17;3.20;;;26.40;99.90;;;;;;5040343;28;20175;-81
2022/08/17 10:42:36;;;;;;;5.37;3.63;;;26.90;99.90;;;;;;5039873;28;20190;-81
2022/08/17 10:45:28;;;;;;;5.67;3.60;;;27.60;99.90;;;;;;5038810;28;20190;-81
2022/08/17 10:48:05;;;;;;;3.57;3.27;;;28.40;99.90;;;;;;5038221;28;20187;-81
2022/08/17 10:50:51;;;;;;;5.83;3.20;;;28.60;99.90;;;;;;5038790;28;20226;-81
2022/08/17 10:53:32;;;;;;;4.93;3.20;;;28.40;99.90;;;;;;5040423;28;20218;-81
2022/08/17 10:56:14;;;;;;;6.10;3.57;;;28.00;99.90;;;;;;5044648;28;20180;-80
2022/08/17 10:58:56;;;;;;;4.47;3.67;;;27.60;99.90;;;;;;5043326;28;20276;-80
2022/08/17 11:01:37;;;;;;;3.50;3.20;;;27.30;99.90;;;;;;5038084;28;20212;-80
2022/08/17 11:04:20;;;;;;;8.03;3.47;;;26.70;99.90;;;;;;5039114;28;20187;-81
2022/08/17 11:07:16;;;;;;;4.10;3.43;;;26.40;99.90;;;;;;5039667;28;20181;-79
2022/08/17 11:09:53;;;;;;;5.17;3.13;;;26.10;99.90;;;;;;5043223;28;20189;-79
2022/08/17 11:12:36;;;;;;;3.87;3.17;;;25.90;99.90;;;;;;5041981;28;20299;-81
2022/08/17 11:15:23;;;;;;;4.73;3.43;;;25.90;99.90;;;;;;5037710;28;20178;-81
2022/08/17 11:18:09;;;;;;;3.70;3.33;;;26.00;99.90;;;;;;5039295;28;20276;-81
2022/08/17 11:20:40;;;;;;;6.03;3.80;;;26.70;99.90;;;;;;5037787;28;20177;-81
2022/08/17 11:23:36;;;;;;;4.10;3.63;;;26.70;99.90;;;;;;5037562;28;20173;-80
2022/08/17 11:26:16;;;;;;;6.67;3.37;;;26.50;99.90;;;;;;5037523;28;20289;-80
2022/08/17 11:28:49;;;;;;;6.83;4.00;;;26.10;99.90;;;;;;5037081;28;20197;-80
2022/08/17 11:31:24;;;;;;;6.50;3.63;;;25.70;99.90;;;;;;5037532;28;20210;-80
2022/08/17 11:34:03;;;;;;;6.00;3.40;;;25.50;99.90;;;;;;5039268;28;20267;-80
2022/08/17 11:36:50;;;;;;;4.10;3.70;;;25.40;99.90;;;;;;5036923;28;20194;-81
2022/08/17 11:39:24;;;;;;;4.63;3.60;;;25.30;99.90;;;;;;5037700;28;20207;-80
2022/08/17 11:42:04;;;;;;;5.33;3.47;;;25.40;99.90;;;;;;5038563;28;20303;-80
2022/08/17 11:44:54;;;;;;;4.80;3.47;;;25.60;99.90;;;;;;5037103;28;20204;-80
2022/08/17 11:53:36;;;;;;;6.53;3.40;;;26.60;99.90;;;;;;5036273;28;20186;-80
2022/08/17 11:56:02;;;;;;;3.80;3.27;;;26.80;99.90;;;;;;5035073;28;20183;-80
2022/08/17 11:58:28;;;;;;;6.53;3.50;;;26.80;99.90;;;;;;5036259;28;20675;-80
2022/08/17 12:02:01;;;;;;;5.47;3.30;;;27.60;99.90;;;;;;5036498;28;20194;-80
2022/08/17 12:04:32;;;;;;;4.80;3.37;;;27.90;99.90;;;;;;5042049;28;20248;-81
2022/08/17 12:07:31;;;;;;;4.40;3.17;;;28.30;99.90;;;;;;5052979;28;20177;-80
2022/08/17 12:09:58;;;;;;;3.83;3.20;;;28.30;99.90;;;;;;5051883;28;20190;-81
2022/08/17 12:12:32;;;;;;;3.90;3.00;;;27.90;99.90;;;;;;5040899;28;20282;-81
2022/08/17 12:14:59;;;;;;;3.93;3.50;;;27.50;99.90;;;;;;5041282;28;20205;-81
2022/08/17 12:17:28;;;;;;;5.80;3.33;;;27.40;99.90;;;;;;5040468;28;20217;-81
2022/08/17 12:20:06;;;;;;;7.37;3.43;;;27.20;99.90;;;;;;5039452;28;20205;-81
2022/08/17 12:22:46;;;;;;;4.80;3.77;;;26.90;99.90;;;;;;5041171;28;20191;-81
2022/08/17 12:25:25;;;;;;;4.70;3.30;;;26.60;99.90;;;;;;5040649;28;20199;-81
2022/08/17 12:27:51;;;;;;;3.63;3.10;;;26.20;99.90;;;;;;5039224;28;20640;-80
2022/08/17 12:30:21;;;;;;;3.70;3.40;;;25.70;99.90;;;;;;5040864;28;20207;-80
2022/08/17 12:32:47;;;;;;;3.90;3.47;;;25.70;99.90;;;;;;5039146;28;20270;-81
2022/08/17 12:35:23;;;;;;;3.53;3.17;;;25.60;99.90;;;;;;5039547;28;20220;-80
2022/08/17 12:37:50;;;;;;;5.97;4.03;;;25.60;99.90;;;;;;5041024;28;20205;-80
2022/08/17 12:40:22;;;;;;;4.27;3.20;;;26.00;99.90;;;;;;5041533;28;20175;-80
2022/08/17 12:43:01;;;;;;;4.33;3.17;;;26.00;99.90;;;;;;5043668;28;20253;-80
2022/08/17 12:45:31;;;;;;;4.00;2.90;;;26.10;99.90;;;;;;5043472;28;20611;-80
2022/08/17 12:48:06;;;;;;;5.13;2.83;;;26.60;99.90;;;;;;5039911;28;20197;-81
2022/08/17 12:50:37;;;;;;;4.40;3.20;;;27.70;99.90;;;;;;5041280;28;20184;-81
2022/08/17 12:53:14;;;;;;;4.30;2.80;;;27.80;99.90;;;;;;5041225;28;20208;-81
2022/08/17 12:55:43;;;;;;;4.90;3.50;;;28.70;99.90;;;;;;5039035;28;20188;-81
2022/08/17 12:58:23;;;;;;;8.83;3.00;;;29.30;99.90;;;;;;5038908;28;20260;-80
2022/08/17 13:01:12;;;;;;;3.20;2.90;;;30.00;99.90;;;;;;5044598;28;20200;-80
2022/08/17 13:03:48;;;;;;;4.07;3.40;;;30.00;98.20;;;;;;5049709;28;20174;-81
2022/08/17 13:06:34;;;;;;;3.10;2.70;;;30.40;98.00;;;;;;5043968;28;20203;-81
2022/08/17 13:09:23;;;;;;;5.30;3.10;;;30.70;95.60;;;;;;5039521;28;20231;-81
2022/08/17 13:11:52;;;;;;;3.40;3.00;;;31.00;96.30;;;;;;5039370;28;20249;-80
2022/08/17 13:14:18;;;;;;;3.33;3.03;;;31.30;95.20;;;;;;5038105;28;20187;-81
2022/08/17 13:16:52;;;;;;;3.40;2.97;;;31.20;95.70;;;;;;5039252;28;20219;-81
2022/08/17 13:19:20;;;;;;;4.67;3.47;;;31.10;94.40;;;;;;5038018;28;20340;-81
2022/08/17 13:21:52;;;;;;;4.00;2.90;;;31.20;93.90;;;;;;5037332;28;20209;-81
2022/08/17 13:24:31;;;;;;;3.90;3.17;;;31.60;94.50;;;;;;5039888;28;20190;-81
2022/08/17 13:27:00;;;;;;;3.37;3.07;;;31.90;92.30;;;;;;5037456;28;20189;-80
2022/08/17 13:29:33;;;;;;;4.73;2.93;;;32.10;91.30;;;;;;5038564;28;20209;-81
2022/08/17 13:32:09;;;;;;;3.30;3.00;;;32.20;91.30;;;;;;5039263;28;20205;-81
2022/08/17 13:34:55;;;;;;;4.17;3.20;;;32.20;91.00;;;;;;5038014;28;20256;-81
2022/08/17 13:37:31;;;;;;;3.60;2.50;;;;;;;;;;5039364;28;20180;-81
2022/08/17 13:40:31;;;;;;;3.40;2.70;;;32.90;90.70;;;;;;5038471;28;20633;-81
2022/08/17 13:42:57;;;;;;;3.97;2.77;;;32.90;90.30;;;;;;5039012;28;20244;-81
2022/08/17 13:45:31;;;;;;;2.77;2.57;;;33.10;87.80;;;;;;5041074;28;20542;-81
2022/08/17 13:48:23;;;;;;;3.33;2.90;;;33.30;86.90;;;;;;5043385;28;20211;-81
2022/08/17 13:50:54;;;;;;;4.30;2.67;;;33.40;84.80;;;;;;5041835;28;20231;-81
2022/08/17 13:53:36;;;;;;;2.80;2.60;;;33.60;89.80;;;;;;5037310;28;20181;-82
2022/08/17 13:56:11;;;;;;;4.73;2.60;;;33.80;79.20;;;;;;5039864;28;20172;-81
2022/08/17 13:58:40;;;;;;;5.77;3.07;;;33.50;81.50;;;;;;5037635;28;20178;-82